Time;durP1;ratioP1;P1;durP2;ratioP2;P2;SDS_P1;SDS_P2;PMS_P1;PMS_P2;Temp;Humidity;BMP_temperature;BMP_pressure;BME280_temperature;BME280_humidity;BME280_pressure;Samples;Min_cycle;Max_cycle;Signal;HPM_P1;HPM_P2
2022/11/14 00:02:15;;;;;;;;;;;;;;;11.41;59.06;99942.69;5011872;28;19918;-73
2022/11/14 00:04:44;;;;;;;;;;;;;;;11.38;59.06;99948.94;5011005;28;19921;-72
2022/11/14 00:07:09;;;;;;;;;;;;;;;11.37;58.90;99947.28;5010543;28;19928;-72
2022/11/14 00:09:37;;;;;;;;;;;;;;;11.35;59.13;99946.53;5011184;28;19918;-72
2022/11/14 00:12:02;;;;;;;;;;;;;;;11.35;59.15;99950.91;5011544;28;20408;-73
2022/11/14 00:14:28;;;;;;;;;;;;;;;11.34;59.04;99951.84;5010985;28;19992;-73
2022/11/14 00:16:53;;;;;;;;;;;;;;;11.32;59.07;99953.69;5011575;28;19917;-72
2022/11/14 00:19:18;;;;;;;;;;;;;;;11.31;59.71;99957.28;5014686;28;20281;-73
2022/11/14 00:21:44;;;;;;;;;;;;;;;11.31;59.04;99954.66;4999219;28;20016;-73
2022/11/14 00:24:09;;;;;;;;;;;;;;;11.28;59.40;99955.66;4978669;28;19917;-72
2022/11/14 00:26:34;;;;;;;;;;;;;;;11.28;59.43;99957.44;4994813;28;19918;-73
2022/11/14 00:29:00;;;;;;;;;;;;;;;11.26;59.45;99954.06;4995526;28;19927;-72
2022/11/14 00:31:25;;;;;;;;;;;;;;;11.25;59.09;99950.63;4978942;28;19941;-72
2022/11/14 00:33:50;;;;;;;;;;;;;;;11.22;59.16;99951.63;4978635;28;20357;-73
2022/11/14 00:36:16;;;;;;;;;;;;;;;11.21;59.29;99946.50;4994774;28;19924;-72
2022/11/14 00:38:41;;;;;;;;;;;;;;;11.20;58.89;99948.28;4994368;28;19918;-72
2022/11/14 00:41:06;;;;;;;;;;;;;;;11.19;59.12;99948.38;4995357;28;20315;-73
2022/11/14 00:43:32;;;;;;;;;;;;;;;11.16;58.99;99945.94;4994838;28;20301;-71
2022/11/14 00:45:57;;;;;;;;;;;;;;;11.13;58.83;99946.97;5011398;28;19918;-71
2022/11/14 00:48:22;;;;;;;;;;;;;;;11.14;59.19;99945.19;4994587;28;19943;-72
2022/11/14 00:50:48;;;;;;;;;;;;;;;11.12;58.84;99940.06;4995937;28;19921;-74
2022/11/14 00:53:13;;;;;;;;;;;;;;;11.11;58.79;99938.38;4995008;28;19918;-71
2022/11/14 00:55:38;;;;;;;;;;;;;;;11.10;58.66;99941.06;4994870;28;20352;-72
2022/11/14 00:58:04;;;;;;;;;;;;;;;11.07;58.76;99941.25;4995454;28;20017;-72
2022/11/14 01:00:29;;;;;;;;;;;;;;;11.04;58.76;99939.69;4994714;28;20377;-72
2022/11/14 01:02:57;;;;;;;;;;;;;;;11.04;58.95;99939.69;4995158;28;19918;-72
2022/11/14 01:05:22;;;;;;;;;;;;;;;11.01;59.05;99929.41;5010865;28;19926;-72
2022/11/14 01:07:48;;;;;;;;;;;;;;;10.99;59.12;99934.72;4994375;28;19975;-72
2022/11/14 01:10:14;;;;;;;;;;;;;;;10.96;59.18;99932.28;4994436;28;19925;-72
2022/11/14 01:12:39;;;;;;;;;;;;;;;10.96;58.83;99927.06;4994560;28;19918;-72
2022/11/14 01:15:05;;;;;;;;;;;;;;;10.95;58.73;99933.22;4994494;28;19925;-72
2022/11/14 01:17:30;;;;;;;;;;;;;;;10.93;58.72;99927.25;4994641;28;19917;-72
2022/11/14 01:19:56;;;;;;;;;;;;;;;10.92;58.90;99924.72;4995501;28;19918;-72
2022/11/14 01:22:21;;;;;;;;;;;;;;;10.90;58.75;99922.19;4994273;28;20008;-72
2022/11/14 01:24:46;;;;;;;;;;;;;;;10.89;58.85;99923.13;4994296;28;19968;-72
2022/11/14 01:27:12;;;;;;;;;;;;;;;10.87;58.81;99914.53;4993966;28;19976;-71
2022/11/14 01:29:37;;;;;;;;;;;;;;;10.84;58.76;99914.72;4991985;28;19928;-72
2022/11/14 01:32:02;;;;;;;;;;;;;;;10.84;58.67;99918.16;4984148;28;19941;-72
2022/11/14 01:34:28;;;;;;;;;;;;;;;10.81;58.79;99913.13;5003200;28;20383;-72
2022/11/14 01:36:53;;;;;;;;;;;;;;;10.79;58.66;99908.94;5001022;28;19918;-72
2022/11/14 01:39:19;;;;;;;;;;;;;;;10.78;58.51;99915.06;4998199;28;20384;-72
2022/11/14 01:41:44;;;;;;;;;;;;;;;10.76;58.66;99899.50;4994119;28;20454;-72
2022/11/14 01:44:14;;;;;;;;;;;;;;;10.74;58.68;99901.34;4994317;28;19917;-72
2022/11/14 01:46:39;;;;;;;;;;;;;;;10.74;58.88;99903.13;4977799;28;19925;-72
2022/11/14 01:49:04;;;;;;;;;;;;;;;10.72;58.85;99899.75;4994242;28;19922;-72
2022/11/14 01:51:33;;;;;;;;;;;;;;;10.72;58.78;99899.75;4994982;28;19918;-73
2022/11/14 01:54:00;;;;;;;;;;;;;;;10.71;58.83;99892.88;4977676;28;19921;-72
2022/11/14 01:56:27;;;;;;;;;;;;;;;10.70;58.62;99888.56;4993725;28;19925;-72
2022/11/14 01:58:55;;;;;;;;;;;;;;;10.70;59.04;99888.56;4993783;28;19918;-72
2022/11/14 02:01:20;;;;;;;;;;;;;;;10.68;58.72;99889.50;4977687;28;19949;-72
2022/11/14 02:03:45;;;;;;;;;;;;;;;10.68;58.74;99891.28;4977064;28;19976;-72
2022/11/14 02:06:12;;;;;;;;;;;;;;;10.67;59.11;99885.22;4993203;28;19933;-72
2022/11/14 02:08:38;;;;;;;;;;;;;;;10.67;58.96;99881.75;4993989;28;19941;-72
2022/11/14 02:11:03;;;;;;;;;;;;;;;10.66;58.86;99880.09;4993480;28;19918;-72
2022/11/14 02:13:28;;;;;;;;;;;;;;;10.64;58.82;99877.56;4977066;28;19968;-71
2022/11/14 02:15:53;;;;;;;;;;;;;;;10.63;58.85;99883.69;4977142;28;19929;-72
2022/11/14 02:18:19;;;;;;;;;;;;;;;10.60;58.91;99881.25;4977152;28;20316;-72
2022/11/14 02:20:44;;;;;;;;;;;;;;;10.60;58.93;99878.66;4976823;28;20016;-72
2022/11/14 02:23:10;;;;;;;;;;;;;;;10.60;59.02;99877.81;4977062;28;19921;-72
2022/11/14 02:25:35;;;;;;;;;;;;;;;10.58;58.61;99877.91;4977044;28;20479;-72
2022/11/14 02:28:00;;;;;;;;;;;;;;;10.58;58.74;99880.53;4992707;28;20024;-72
2022/11/14 02:30:26;;;;;;;;;;;;;;;10.58;58.97;99892.72;4977278;28;20388;-72
2022/11/14 02:32:51;;;;;;;;;;;;;;;10.57;58.98;99885.84;4977073;28;20344;-72
2022/11/14 02:35:16;;;;;;;;;;;;;;;10.56;58.98;99878.91;4976529;28;20463;-72
2022/11/14 02:37:42;;;;;;;;;;;;;;;10.55;58.78;99879.84;4976845;28;20381;-72
2022/11/14 02:40:07;;;;;;;;;;;;;;;10.55;58.96;99867.66;4976535;28;19918;-72
2022/11/14 02:42:33;;;;;;;;;;;;;;;10.55;59.12;99872.00;4976766;28;19964;-72
2022/11/14 02:44:58;;;;;;;;;;;;;;;10.52;58.84;99869.59;4993124;28;19922;-72
2022/11/14 02:47:23;;;;;;;;;;;;;;;10.50;58.76;99870.53;4994094;28;20004;-72
2022/11/14 02:49:49;;;;;;;;;;;;;;;10.48;58.90;99875.00;5004266;28;19921;-73
2022/11/14 02:52:14;;;;;;;;;;;;;;;10.48;58.76;99875.00;5012002;28;20379;-72
2022/11/14 02:54:40;;;;;;;;;;;;;;;10.48;58.66;99874.13;5012557;28;20281;-72
2022/11/14 02:57:05;;;;;;;;;;;;;;;10.48;59.01;99874.13;5013752;28;19945;-71
2022/11/14 02:59:30;;;;;;;;;;;;;;;10.46;58.88;99874.22;5012228;28;20004;-71
2022/11/14 03:01:56;;;;;;;;;;;;;;;10.45;58.72;99875.19;5012227;28;20316;-71
2022/11/14 03:04:21;;;;;;;;;;;;;;;10.43;58.83;99877.00;5012129;28;20012;-71
2022/11/14 03:06:46;;;;;;;;;;;;;;;10.44;58.97;99877.88;5011834;28;19933;-71
2022/11/14 03:09:12;;;;;;;;;;;;;;;10.43;59.25;99878.78;5013921;28;19925;-71
2022/11/14 03:11:37;;;;;;;;;;;;;;;10.42;59.05;99874.47;5011941;28;19955;-71
2022/11/14 03:14:03;;;;;;;;;;;;;;;10.41;58.62;99884.09;5011915;28;19923;-71
2022/11/14 03:16:28;;;;;;;;;;;;;;;10.41;58.97;99881.50;5013629;28;19917;-71
2022/11/14 03:18:53;;;;;;;;;;;;;;;10.41;59.18;99886.72;5011707;28;19917;-72
2022/11/14 03:21:19;;;;;;;;;;;;;;;10.41;59.18;99884.09;5012176;28;19917;-72
2022/11/14 03:23:44;;;;;;;;;;;;;;;10.40;58.89;99882.41;5011802;28;20393;-72
2022/11/14 03:26:10;;;;;;;;;;;;;;;10.38;59.12;99888.66;5012034;28;20012;-72
2022/11/14 03:28:35;;;;;;;;;;;;;;;10.36;59.02;99887.88;5011866;28;19918;-72
2022/11/14 03:31:01;;;;;;;;;;;;;;;10.36;59.17;99888.75;5011832;28;19924;-72
2022/11/14 03:33:26;;;;;;;;;;;;;;;10.36;58.99;99890.50;5012883;28;19977;-73
2022/11/14 03:35:51;;;;;;;;;;;;;;;10.34;58.95;99887.97;5011910;28;20000;-72
2022/11/14 03:38:17;;;;;;;;;;;;;;;10.33;58.94;99881.09;5012072;28;19921;-72
2022/11/14 03:40:42;;;;;;;;;;;;;;;10.32;59.01;99885.44;5011598;28;19968;-73
2022/11/14 03:43:08;;;;;;;;;;;;;;;10.32;58.93;99885.44;5011812;28;19918;-72
2022/11/14 03:45:34;;;;;;;;;;;;;;;10.32;58.95;99889.81;5011573;28;19940;-73
2022/11/14 03:48:00;;;;;;;;;;;;;;;10.30;59.25;99886.44;5011136;28;20463;-73
2022/11/14 03:50:25;;;;;;;;;;;;;;;10.30;59.64;99881.22;5011481;28;19949;-72
2022/11/14 03:52:50;;;;;;;;;;;;;;;10.30;59.24;99884.66;5014724;28;20005;-72
2022/11/14 03:55:16;;;;;;;;;;;;;;;10.30;58.99;99883.84;5031687;28;19968;-73
2022/11/14 03:57:41;;;;;;;;;;;;;;;10.28;59.10;99881.31;5016072;28;20308;-73
2022/11/14 04:00:07;;;;;;;;;;;;;;;10.29;59.15;99876.94;5015505;28;20376;-72
2022/11/14 04:02:32;;;;;;;;;;;;;;;10.28;59.05;99877.88;5015398;28;19924;-72
2022/11/14 04:04:57;;;;;;;;;;;;;;;10.28;59.08;99878.72;5006113;28;20627;-72
2022/11/14 04:07:23;;;;;;;;;;;;;;;10.28;59.16;99888.31;4976180;28;20017;-72
2022/11/14 04:09:48;;;;;;;;;;;;;;;10.27;58.92;99887.44;4976692;28;20301;-72
2022/11/14 04:12:13;;;;;;;;;;;;;;;10.27;58.94;99886.63;4976350;28;20447;-72
2022/11/14 04:14:39;;;;;;;;;;;;;;;10.25;59.20;99878.88;4975776;28;19918;-73
2022/11/14 04:17:04;;;;;;;;;;;;;;;10.25;59.14;99881.50;4976164;28;20020;-72
2022/11/14 04:19:29;;;;;;;;;;;;;;;10.25;59.05;99886.72;4975979;28;19918;-72
2022/11/14 04:21:54;;;;;;;;;;;;;;;10.23;59.06;99883.34;4975930;28;19973;-72
2022/11/14 04:24:20;;;;;;;;;;;;;;;10.23;58.83;99883.34;4975811;28;19919;-73
2022/11/14 04:26:45;;;;;;;;;;;;;;;10.20;58.98;99880.91;4986782;28;19929;-73
2022/11/14 04:29:11;;;;;;;;;;;;;;;10.21;58.95;99884.34;4998086;28;20296;-73
2022/11/14 04:31:36;;;;;;;;;;;;;;;10.20;58.78;99887.88;4997456;28;20395;-72
2022/11/14 04:34:01;;;;;;;;;;;;;;;10.18;59.08;99885.34;5014750;28;20376;-72
2022/11/14 04:36:27;;;;;;;;;;;;;;;10.17;58.84;99883.69;5014767;28;20376;-71
2022/11/14 04:38:52;;;;;;;;;;;;;;;10.17;58.92;99882.84;5031225;28;19961;-70
2022/11/14 04:41:17;;;;;;;;;;;;;;;10.15;58.75;99888.13;5014729;28;19924;-72
2022/11/14 04:43:42;;;;;;;;;;;;;;;10.14;58.78;99879.47;5014918;28;19922;-72
2022/11/14 04:46:08;;;;;;;;;;;;;;;10.14;58.77;99878.66;5014575;28;20453;-71
2022/11/14 04:48:33;;;;;;;;;;;;;;;10.12;58.77;99876.13;5014410;28;19918;-76
2022/11/14 04:50:58;;;;;;;;;;;;;;;10.09;58.78;99884.13;5014436;28;19921;-73
2022/11/14 04:53:24;;;;;;;;;;;;;;;10.08;58.69;99892.03;5014864;28;20023;-75
2022/11/14 04:55:49;;;;;;;;;;;;;;;10.08;58.59;99886.81;5030843;28;19924;-71
2022/11/14 04:58:14;;;;;;;;;;;;;;;10.06;58.58;99892.13;5014377;28;19921;-72
2022/11/14 05:00:40;;;;;;;;;;;;;;;10.07;58.50;99904.25;5012290;28;20285;-74
2022/11/14 05:03:05;;;;;;;;;;;;;;;10.09;58.73;99898.94;5011419;28;19922;-72
2022/11/14 05:05:30;;;;;;;;;;;;;;;10.08;58.67;99907.69;5026022;28;20428;-73
2022/11/14 05:07:56;;;;;;;;;;;;;;;10.08;58.48;99910.28;4993309;28;19922;-72
2022/11/14 05:10:21;;;;;;;;;;;;;;;10.08;58.55;99908.53;4994221;28;19918;-71
2022/11/14 05:12:46;;;;;;;;;;;;;;;10.09;58.65;99906.78;4978004;28;19918;-71
2022/11/14 05:15:12;;;;;;;;;;;;;;;10.09;58.37;99907.59;4988865;28;19998;-71
2022/11/14 05:17:37;;;;;;;;;;;;;;;10.10;58.67;99913.66;4994481;28;19918;-71
2022/11/14 05:20:03;;;;;;;;;;;;;;;10.12;58.53;99915.25;4993164;28;19928;-70
2022/11/14 05:22:28;;;;;;;;;;;;;;;10.14;58.36;99916.00;4994473;28;19925;-70
2022/11/14 05:24:53;;;;;;;;;;;;;;;10.16;58.06;99918.53;4995353;28;19917;-71
2022/11/14 05:27:18;;;;;;;;;;;;;;;10.16;58.16;99909.88;4993997;28;19917;-70
2022/11/14 05:29:44;;;;;;;;;;;;;;;10.17;57.87;99916.75;4995406;28;20032;-71
2022/11/14 05:32:09;;;;;;;;;;;;;;;10.18;57.87;99910.63;4993552;28;19957;-71
2022/11/14 05:34:34;;;;;;;;;;;;;;;10.18;57.53;99911.44;4994056;28;19971;-71
2022/11/14 05:37:02;;;;;;;;;;;;;;;10.18;57.35;99924.50;4993581;28;20008;-71
2022/11/14 05:39:27;;;;;;;;;;;;;;;10.24;57.19;99918.94;4992605;28;19922;-70
2022/11/14 05:41:53;;;;;;;;;;;;;;;10.31;56.97;99916.84;4980235;28;20403;-71
2022/11/14 05:44:18;;;;;;;;;;;;;;;10.34;56.84;99921.91;5012559;28;19917;-70
2022/11/14 05:46:43;;;;;;;;;;;;;;;10.44;56.44;99920.47;4998271;28;20012;-72
2022/11/14 05:49:09;;;;;;;;;;;;;;;10.59;56.07;99925.75;4974620;28;20347;-71
2022/11/14 05:51:34;;;;;;;;;;;;;;;10.68;56.32;99931.28;4991706;28;19925;-71
2022/11/14 05:53:59;;;;;;;;;;;;;;;10.83;55.66;99923.47;4993652;28;19975;-71
2022/11/14 05:56:25;;;;;;;;;;;;;;;11.15;55.15;99924.19;4977071;28;19929;-71
2022/11/14 05:58:50;;;;;;;;;;;;;;;11.71;53.71;99929.50;4976786;28;20266;-70
2022/11/14 06:01:16;;;;;;;;;;;;;;;12.35;52.88;99917.72;4977121;28;20063;-71
2022/11/14 06:03:42;;;;;;;;;;;;;;;12.89;51.55;99922.03;4977056;28;19925;-71
2022/11/14 06:06:08;;;;;;;;;;;;;;;13.45;50.84;99924.41;4976496;28;20039;-71
2022/11/14 06:08:34;;;;;;;;;;;;;;;13.93;50.25;99925.34;4977039;28;20389;-70
2022/11/14 06:11:03;;;;;;;;;;;;;;;14.29;49.43;99922.81;4977077;28;19924;-71
2022/11/14 06:13:29;;;;;;;;;;;;;;;14.65;48.31;99921.91;4993068;28;19917;-71
2022/11/14 06:15:57;;;;;;;;;;;;;;;15.66;51.14;99920.38;4995355;28;19921;-73
2022/11/14 06:18:22;;;;;;;;;;;;;;;17.05;45.43;99919.72;4995574;28;20397;-72
2022/11/14 06:20:48;;;;;;;;;;;;;;;18.40;44.67;99925.59;4992756;28;19969;-71
2022/11/14 06:23:13;;;;;;;;;;;;;;;19.53;39.25;99921.38;4993519;28;19925;-71
2022/11/14 06:25:38;;;;;;;;;;;;;;;20.52;36.05;99908.38;4976647;28;19957;-71
2022/11/14 06:28:04;;;;;;;;;;;;;;;21.36;33.24;99914.13;4976747;28;19926;-70
2022/11/14 06:30:29;;;;;;;;;;;;;;;22.49;39.38;99922.66;4976539;28;20444;-73
2022/11/14 06:33:00;;;;;;;;;;;;;;;23.19;38.79;99918.63;4993303;28;20024;-70
2022/11/14 06:35:25;;;;;;;;;;;;;;;23.53;33.04;99922.88;4991947;28;19922;-70
2022/11/14 06:37:51;;;;;;;;;;;;;;;23.60;31.46;99915.00;4993099;28;19924;-70
2022/11/14 06:40:16;;;;;;;;;;;;;;;23.52;30.50;99917.72;4992989;28;19918;-70
2022/11/14 06:42:41;;;;;;;;;;;;;;;23.34;30.59;99917.91;4976668;28;19918;-69
2022/11/14 06:45:07;;;;;;;;;;;;;;;23.07;30.97;99912.81;4992512;28;20404;-70
2022/11/14 06:47:32;;;;;;;;;;;;;;;23.02;31.28;99915.13;4993566;28;20032;-71
2022/11/14 06:49:57;;;;;;;;;;;;;;;23.03;31.79;99908.81;4992083;28;19918;-71
2022/11/14 06:52:24;;;;;;;;;;;;;;;23.08;31.44;99905.66;4992342;28;20344;-71
2022/11/14 06:54:50;;;;;;;;;;;;;;;23.23;30.85;99911.13;5006618;28;20004;-73
2022/11/14 06:57:16;;;;;;;;;;;;;;;23.47;34.61;99907.56;5013966;28;20360;-70
2022/11/14 06:59:41;;;;;;;;;;;;;;;23.61;32.98;99908.66;5011831;28;19961;-70
2022/11/14 07:02:09;;;;;;;;;;;;;;;23.69;30.17;99907.78;5011922;28;20012;-70
2022/11/14 07:04:35;;;;;;;;;;;;;;;23.73;30.47;99901.94;5011771;28;19921;-70
2022/11/14 07:07:00;;;;;;;;;;;;;;;23.81;29.81;99909.06;5012812;28;19932;-69
2022/11/14 07:09:25;;;;;;;;;;;;;;;23.98;29.63;99902.66;4979296;28;19987;-71
2022/11/14 07:11:51;;;;;;;;;;;;;;;24.10;29.39;99903.13;4979156;28;19917;-72
2022/11/14 07:14:16;;;;;;;;;;;;;;;24.49;31.62;99901.31;5013080;28;19924;-68
2022/11/14 07:16:41;;;;;;;;;;;;;;;24.86;33.03;99905.03;4995710;28;20327;-71
2022/11/14 07:19:08;;;;;;;;;;;;;;;25.17;31.34;99904.88;4995717;28;19976;-73
2022/11/14 07:21:34;;;;;;;;;;;;;;;25.40;31.59;99901.34;4995701;28;19918;-74
2022/11/14 07:23:59;;;;;;;;;;;;;;;25.57;30.65;99912.63;4979385;28;20396;-77
2022/11/14 07:26:25;;;;;;;;;;;;;;;25.68;30.28;99911.34;4994769;28;19929;-73
2022/11/14 07:28:50;;;;;;;;;;;;;;;25.80;29.83;99905.31;4978586;28;20376;-73
2022/11/14 07:31:17;;;;;;;;;;;;;;;25.86;29.07;99902.94;4963206;28;19928;-72
2022/11/14 07:33:43;;;;;;;;;;;;;;;25.93;28.98;99909.16;4976184;28;19918;-73
2022/11/14 07:36:08;;;;;;;;;;;;;;;26.02;28.48;99900.03;4975926;28;20372;-73
2022/11/14 07:38:34;;;;;;;;;;;;;;;26.18;28.54;99902.47;4959609;28;20381;-72
2022/11/14 07:41:00;;;;;;;;;;;;;;;26.35;28.11;99896.88;4975608;28;19926;-73
2022/11/14 07:43:25;;;;;;;;;;;;;;;26.53;27.07;99901.75;4975526;28;19925;-73
2022/11/14 07:45:51;;;;;;;;;;;;;;;26.57;27.35;99900.38;4959596;28;19918;-73
2022/11/14 07:48:16;;;;;;;;;;;;;;;26.43;27.44;99890.56;4959115;28;19918;-72
2022/11/14 07:50:41;;;;;;;;;;;;;;;26.14;27.94;99897.69;4976134;28;19917;-72
2022/11/14 07:53:07;;;;;;;;;;;;;;;26.12;27.79;99897.06;4959718;28;20278;-70
2022/11/14 07:55:34;;;;;;;;;;;;;;;26.14;27.73;99895.00;4959277;28;19922;-72
2022/11/14 07:57:59;;;;;;;;;;;;;;;26.26;27.29;99892.66;4959504;28;19965;-72
2022/11/14 08:00:24;;;;;;;;;;;;;;;26.15;27.09;99886.78;4975270;28;19971;-73
2022/11/14 08:02:50;;;;;;;;;;;;;;;25.75;27.55;99888.19;4975662;28;19983;-72
2022/11/14 08:05:15;;;;;;;;;;;;;;;25.72;27.61;99892.06;4975270;28;19922;-72
2022/11/14 08:07:40;;;;;;;;;;;;;;;26.00;27.34;99888.72;4989477;28;20344;-72
2022/11/14 08:10:06;;;;;;;;;;;;;;;26.03;26.53;99893.69;4991690;28;19918;-73
2022/11/14 08:12:31;;;;;;;;;;;;;;;25.98;27.05;99896.06;4991925;28;19925;-72
2022/11/14 08:14:57;;;;;;;;;;;;;;;26.00;26.68;99888.72;4991720;28;20018;-73
2022/11/14 08:17:22;;;;;;;;;;;;;;;25.62;27.15;99896.88;4975636;28;19917;-71
2022/11/14 08:19:48;;;;;;;;;;;;;;;25.20;27.70;99893.81;4975363;28;19922;-73
2022/11/14 08:22:13;;;;;;;;;;;;;;;25.07;27.95;99899.00;4991833;28;19933;-72
2022/11/14 08:24:38;;;;;;;;;;;;;;;24.71;28.15;99900.50;4992177;28;20337;-72
2022/11/14 08:27:04;;;;;;;;;;;;;;;24.58;28.73;99905.63;4975717;28;20432;-73
2022/11/14 08:29:29;;;;;;;;;;;;;;;24.44;28.72;99904.53;4975512;28;20309;-72
2022/11/14 08:31:54;;;;;;;;;;;;;;;24.62;28.25;99892.75;4991824;28;20404;-72
2022/11/14 08:34:21;;;;;;;;;;;;;;;24.65;28.28;99900.38;4991667;28;19926;-72
2022/11/14 08:36:46;;;;;;;;;;;;;;;24.38;29.04;99908.75;4991535;28;20351;-72
2022/11/14 08:39:12;;;;;;;;;;;;;;;24.29;28.61;99901.81;4977894;28;19918;-71
2022/11/14 08:41:37;;;;;;;;;;;;;;;24.15;28.67;99898.06;4995356;28;20416;-71
2022/11/14 08:44:02;;;;;;;;;;;;;;;24.13;28.68;99896.56;4984252;28;19917;-73
2022/11/14 08:46:28;;;;;;;;;;;;;;;24.13;28.87;99892.09;5014756;28;20372;-71
2022/11/14 08:48:53;;;;;;;;;;;;;;;23.95;28.98;99896.88;5014909;28;19924;-71
2022/11/14 08:51:18;;;;;;;;;;;;;;;23.76;29.48;99898.09;5014616;28;19924;-71
2022/11/14 08:53:43;;;;;;;;;;;;;;;23.46;29.94;99890.72;5015067;28;20292;-71
2022/11/14 08:56:09;;;;;;;;;;;;;;;23.25;30.40;99888.66;5014585;28;19917;-71
2022/11/14 08:58:34;;;;;;;;;;;;;;;23.02;30.46;99877.84;5014046;28;19922;-71
2022/11/14 09:01:03;;;;;;;;;;;;;;;22.77;31.25;99882.38;4997832;28;19917;-72
2022/11/14 09:03:29;;;;;;;;;;;;;;;22.62;31.50;99881.41;5014202;28;19917;-72
2022/11/14 09:05:54;;;;;;;;;;;;;;;22.44;31.71;99879.75;5014124;28;19953;-71
2022/11/14 09:08:19;;;;;;;;;;;;;;;22.25;32.35;99880.03;4981584;28;19960;-72
2022/11/14 09:10:45;;;;;;;;;;;;;;;22.08;32.52;99879.22;4981312;28;20376;-73
2022/11/14 09:13:10;;;;;;;;;;;;;;;21.98;32.73;99872.19;4981209;28;19960;-72
2022/11/14 09:15:35;;;;;;;;;;;;;;;21.91;32.67;99873.00;4998076;28;20371;-71
2022/11/14 09:18:01;;;;;;;;;;;;;;;21.79;33.21;99872.47;4997589;28;19925;-72
2022/11/14 09:20:29;;;;;;;;;;;;;;;21.77;33.39;99871.81;4997635;28;19917;-72
2022/11/14 09:22:56;;;;;;;;;;;;;;;21.74;33.64;99857.00;4981829;28;19967;-72
2022/11/14 09:25:22;;;;;;;;;;;;;;;21.77;33.54;99862.00;5015313;28;19944;-72
2022/11/14 09:27:47;;;;;;;;;;;;;;;21.90;33.40;99852.72;4981278;28;20388;-72
2022/11/14 09:30:13;;;;;;;;;;;;;;;21.96;33.63;99854.75;4997302;28;20304;-71
2022/11/14 09:32:38;;;;;;;;;;;;;;;21.93;33.91;99850.56;4981028;28;20377;-73
2022/11/14 09:35:03;;;;;;;;;;;;;;;21.92;34.06;99848.94;4981015;28;19918;-71
2022/11/14 09:37:29;;;;;;;;;;;;;;;21.92;34.06;99845.41;5015162;28;19918;-71
2022/11/14 09:39:54;;;;;;;;;;;;;;;22.01;33.85;99842.63;4997045;28;20248;-72
2022/11/14 09:42:25;;;;;;;;;;;;;;;22.27;33.55;99835.50;4997215;28;20367;-72
2022/11/14 09:44:57;;;;;;;;;;;;;;;22.30;33.40;99836.03;5013516;28;19976;-71
2022/11/14 09:47:29;;;;;;;;;;;;;;;22.13;33.67;99832.50;4980783;28;19917;-72
2022/11/14 09:49:55;;;;;;;;;;;;;;;22.02;33.42;99835.47;5012481;28;19918;-72
2022/11/14 09:52:23;;;;;;;;;;;;;;;22.13;33.57;99837.00;4997076;28;19917;-73
2022/11/14 09:54:55;;;;;;;;;;;;;;;22.45;33.26;99833.53;5014525;28;19917;-72
2022/11/14 09:57:20;;;;;;;;;;;;;;;22.42;33.07;99820.56;4980735;28;20316;-72
2022/11/14 09:59:45;;;;;;;;;;;;;;;22.56;33.25;99825.19;4988112;28;19929;-72
2022/11/14 10:02:30;;;;;;;;;;;;;;;22.90;32.47;99829.47;4961214;28;20696;-72
2022/11/14 10:05:04;;;;;;;;;;;;;;;23.37;32.25;99817.19;4977388;28;19921;-72
2022/11/14 10:07:44;;;;;;;;;;;;;;;23.84;31.48;99823.44;4989654;28;19953;-72
2022/11/14 10:10:24;;;;;;;;;;;;;;;24.20;31.04;99815.66;4977361;28;19917;-70
2022/11/14 10:13:02;;;;;;;;;;;;;;;24.47;30.56;99804.59;4994659;28;19918;-71
2022/11/14 10:15:32;;;;;;;;;;;;;;;24.76;30.21;99800.34;5009550;28;19953;-71
2022/11/14 10:18:04;;;;;;;;;;;;;;;24.99;29.97;99802.94;4992874;28;20029;-73
2022/11/14 10:20:29;;;;;;;;;;;;;;;25.14;29.91;99800.25;5009445;28;20008;-71
2022/11/14 10:22:57;;;;;;;;;;;;;;;25.25;29.60;99800.59;4994240;28;20029;-71
2022/11/14 10:25:29;;;;;;;;;;;;;;;25.38;29.36;99789.28;5009562;28;19918;-72
2022/11/14 10:28:10;;;;;;;;;;;;;;;25.46;29.19;99786.47;4976743;28;19952;-71
2022/11/14 10:30:40;;;;;;;;;;;;;;;25.47;29.40;99784.63;5009740;28;20005;-72
2022/11/14 10:33:19;;;;;;;;;;;;;;;25.50;29.43;99783.44;4994291;28;19922;-72
2022/11/14 10:35:48;;;;;;;;;;;;;;;25.54;29.25;99777.53;4976784;28;20012;-72
2022/11/14 10:38:18;;;;;;;;;;;;;;;25.54;29.11;99774.00;4993966;28;19918;-72
2022/11/14 10:40:44;;;;;;;;;;;;;;;25.55;29.26;99771.13;4976280;28;19925;-70
2022/11/14 10:43:15;;;;;;;;;;;;;;;25.57;29.53;99761.09;4994281;28;19925;-72
2022/11/14 10:45:49;;;;;;;;;;;;;;;25.57;29.34;99769.13;4976652;28;19918;-72
2022/11/14 10:48:16;;;;;;;;;;;;;;;25.61;29.41;99761.56;4976493;28;20468;-71
2022/11/14 10:50:43;;;;;;;;;;;;;;;25.64;29.87;99761.16;4992364;28;19928;-71
2022/11/14 10:53:34;;;;;;;;;;;;;;;25.53;29.94;99761.69;4976272;28;19918;-71
2022/11/14 10:56:00;;;;;;;;;;;;;;;25.47;29.68;99755.22;4972420;28;19918;-73
2022/11/14 10:58:25;;;;;;;;;;;;;;;25.49;29.91;99747.03;4955948;28;19969;-72
2022/11/14 11:00:50;;;;;;;;;;;;;;;25.41;30.01;99743.47;4955973;28;19922;-73
2022/11/14 11:03:16;;;;;;;;;;;;;;;25.35;29.98;99740.69;4971181;28;19918;-72
2022/11/14 11:05:59;;;;;;;;;;;;;;;25.31;30.04;99742.09;4955437;28;19926;-71
2022/11/14 11:11:30;;;;;;;;;;;;;;;25.16;30.18;99736.75;4957960;28;19972;-71
2022/11/14 11:13:56;;;;;;;;;;;;;;;25.07;30.28;99733.38;4971761;28;20012;-72
2022/11/14 11:16:22;;;;;;;;;;;;;;;25.00;30.88;99733.31;4970842;28;20377;-71
2022/11/14 11:18:47;;;;;;;;;;;;;;;24.93;30.62;99725.19;4971362;28;19954;-71
2022/11/14 11:21:16;;;;;;;;;;;;;;;24.84;30.88;99728.16;4971347;28;19918;-71
2022/11/14 11:23:49;;;;;;;;;;;;;;;24.74;30.72;99728.44;4971531;28;19918;-72
2022/11/14 11:26:24;;;;;;;;;;;;;;;24.53;30.88;99721.16;4955452;28;19918;-73
2022/11/14 11:29:09;;;;;;;;;;;;;;;24.33;31.23;99713.66;4971555;28;20373;-71
2022/11/14 11:31:49;;;;;;;;;;;;;;;24.18;31.48;99716.31;4952645;28;19918;-72
2022/11/14 11:34:17;;;;;;;;;;;;;;;24.01;31.72;99709.50;4955233;28;20053;-71
2022/11/14 11:36:44;;;;;;;;;;;;;;;23.77;31.99;99713.19;4955500;28;19922;-71
2022/11/14 11:39:11;;;;;;;;;;;;;;;23.70;32.04;99706.88;4955196;28;19918;-73
2022/11/14 11:41:36;;;;;;;;;;;;;;;23.58;32.46;99720.63;4955163;28;20512;-72
2022/11/14 11:44:05;;;;;;;;;;;;;;;23.42;32.64;99712.72;4955205;28;20025;-72
2022/11/14 11:46:33;;;;;;;;;;;;;;;23.22;32.83;99707.06;4955561;28;19918;-72
2022/11/14 11:49:18;;;;;;;;;;;;;;;23.00;33.15;99706.78;4954926;28;19954;-72
2022/11/14 11:51:44;;;;;;;;;;;;;;;22.76;33.57;99705.91;4895010;29;19924;-72
2022/11/14 11:54:09;;;;;;;;;;;;;;;22.57;34.10;99711.63;4879455;29;19965;-72
2022/11/14 11:56:34;;;;;;;;;;;;;;;22.40;33.99;99705.50;4879733;29;19923;-72
2022/11/14 11:59:03;;;;;;;;;;;;;;;22.20;34.24;99708.53;4879502;29;20082;-72
2022/11/14 12:01:28;;;;;;;;;;;;;;;21.99;34.48;99698.41;4879515;29;19926;-72
2022/11/14 12:03:53;;;;;;;;;;;;;;;21.85;35.12;99694.59;4894442;29;19919;-72
2022/11/14 12:06:26;;;;;;;;;;;;;;;21.72;35.07;99694.25;4879659;29;19927;-72
2022/11/14 12:08:51;;;;;;;;;;;;;;;21.57;35.49;99693.25;4901610;29;19962;-72
2022/11/14 12:11:17;;;;;;;;;;;;;;;21.48;35.53;99687.06;4932877;29;19966;-74
2022/11/14 12:13:48;;;;;;;;;;;;;;;21.38;35.91;99686.38;4918676;29;19979;-72
2022/11/14 12:16:17;;;;;;;;;;;;;;;21.26;36.22;99685.88;4936660;29;19923;-72
2022/11/14 12:18:58;;;;;;;;;;;;;;;21.19;36.71;99683.06;4921119;29;19919;-72
2022/11/14 12:21:35;;;;;;;;;;;;;;;21.02;36.90;99682.19;4936272;29;19919;-73
2022/11/14 12:24:30;;;;;;;;;;;;;;;20.98;36.77;99680.00;4901221;29;19958;-72
2022/11/14 12:27:05;;;;;;;;;;;;;;;20.89;36.88;99685.28;4861369;29;19924;-72
2022/11/14 12:29:48;;;;;;;;;;;;;;;20.80;37.10;99680.94;4893465;29;19983;-74
2022/11/14 12:32:18;;;;;;;;;;;;;;;20.75;37.21;99677.94;4917618;29;20006;-74
2022/11/14 12:34:44;;;;;;;;;;;;;;;20.70;37.10;99681.06;4917465;29;19962;-71
2022/11/14 12:37:30;;;;;;;;;;;;;;;20.64;37.29;99678.19;4917119;29;20019;-72
2022/11/14 12:40:02;;;;;;;;;;;;;;;20.59;37.44;99678.69;4916910;29;19923;-71
2022/11/14 12:42:28;;;;;;;;;;;;;;;20.53;37.92;99676.66;4916752;29;19987;-71
2022/11/14 12:44:53;;;;;;;;;;;;;;;20.48;37.95;99673.63;4917577;29;19919;-73
2022/11/14 12:47:19;;;;;;;;;;;;;;;20.40;37.99;99672.59;4917112;29;19926;-73
2022/11/14 12:49:48;;;;;;;;;;;;;;;20.33;38.20;99676.03;4916895;29;20572;-73